createdAt,value
2023-03-03T00:02:00.055Z,26.08
2023-03-03T00:04:32.227Z,32.58
2023-03-03T00:07:01.805Z,26.88
2023-03-03T00:09:31.407Z,46.88
2023-03-03T00:12:03.466Z,28.05
2023-03-03T00:14:35.191Z,29.63
2023-03-03T00:17:23.773Z,58.80
2023-03-03T00:19:56.800Z,44.70
2023-03-03T00:22:32.829Z,32.63
2023-03-03T00:25:23.689Z,32.15
2023-03-03T00:27:53.398Z,34.15
2023-03-03T00:30:27.082Z,24.77
2023-03-03T00:32:57.786Z,34.70
2023-03-03T00:35:35.623Z,22.95
2023-03-03T00:38:13.901Z,38.42
2023-03-03T00:40:44.287Z,19.58
2023-03-03T00:43:21.884Z,25.92
2023-03-03T00:45:53.248Z,19.40
2023-03-03T00:48:27.205Z,35.67
2023-03-03T00:51:01.233Z,21.40
2023-03-03T00:53:33.251Z,32.80
2023-03-03T00:56:02.974Z,42.13
2023-03-03T00:58:32.586Z,34.20
2023-03-03T01:01:02.217Z,21.85
2023-03-03T01:03:42.093Z,22.73
2023-03-03T01:06:15.470Z,19.30
2023-03-03T01:08:45.898Z,23.80
2023-03-03T01:11:18.788Z,16.80
2023-03-03T01:13:50.689Z,24.65
2023-03-03T01:16:21.089Z,23.45
2023-03-03T01:18:50.949Z,40.55
2023-03-03T01:21:23.088Z,25.88
2023-03-03T01:23:52.689Z,20.50
2023-03-03T01:26:22.601Z,22.02
2023-03-03T01:28:52.143Z,14.98
2023-03-03T01:31:21.826Z,26.60
2023-03-03T01:33:51.414Z,17.98
2023-03-03T01:36:28.904Z,20.60
2023-03-03T01:38:58.872Z,17.65
2023-03-03T01:41:33.008Z,17.63
2023-03-03T01:44:03.012Z,24.67
2023-03-03T01:46:43.484Z,23.23
2023-03-03T01:49:17.017Z,24.42
2023-03-03T01:51:53.594Z,15.68
2023-03-03T01:54:28.073Z,42.53
2023-03-03T01:57:02.717Z,23.27
2023-03-03T01:59:37.087Z,23.73
2023-03-03T02:02:07.044Z,44.40
2023-03-03T02:04:37.828Z,38.88
2023-03-03T02:07:13.540Z,48.53
2023-03-03T02:09:52.140Z,41.50
2023-03-03T02:12:26.156Z,24.52
2023-03-03T02:14:55.715Z,24.00
2023-03-03T02:17:25.639Z,23.67
2023-03-03T02:20:01.772Z,28.15
2023-03-03T02:22:44.925Z,35.30
2023-03-03T02:25:20.294Z,24.85
2023-03-03T02:27:52.447Z,22.95
2023-03-03T02:30:26.594Z,33.55
2023-03-03T02:32:56.170Z,69.82
2023-03-03T02:35:31.768Z,62.10
2023-03-03T02:38:10.449Z,31.20
2023-03-03T02:40:45.205Z,63.53
2023-03-03T02:43:20.496Z,31.65
2023-03-03T02:45:50.168Z,61.45
2023-03-03T02:48:19.806Z,48.65
2023-03-03T02:50:49.353Z,38.13
2023-03-03T02:53:19.015Z,38.88
2023-03-03T02:55:48.659Z,36.85
2023-03-03T02:58:21.559Z,43.13
2023-03-03T03:00:51.185Z,78.47
2023-03-03T03:03:25.482Z,41.25
2023-03-03T03:05:55.298Z,36.45
2023-03-03T03:08:26.568Z,77.65
2023-03-03T03:10:56.982Z,64.63
2023-03-03T03:13:30.454Z,155.32
2023-03-03T03:16:00.208Z,52.83
2023-03-03T03:18:30.339Z,57.22
2023-03-03T03:21:07.883Z,51.00
2023-03-03T03:23:38.705Z,34.90
2023-03-03T03:26:09.467Z,33.65
2023-03-03T03:28:41.751Z,24.05
2023-03-03T03:31:13.027Z,26.65
2023-03-03T03:33:42.716Z,38.72
2023-03-03T03:36:13.633Z,36.78
2023-03-03T03:38:44.726Z,26.08
2023-03-03T03:41:15.522Z,42.63
2023-03-03T03:43:48.121Z,54.85
2023-03-03T03:46:19.340Z,39.95
2023-03-03T03:48:49.189Z,49.75
2023-03-03T03:51:21.640Z,36.42
2023-03-03T03:53:51.535Z,49.03
2023-03-03T03:56:21.121Z,72.53
2023-03-03T03:58:56.837Z,60.33
2023-03-03T04:01:26.579Z,46.67
2023-03-03T04:03:57.001Z,39.03
2023-03-03T04:06:27.652Z,44.70
2023-03-03T04:08:58.886Z,39.50
2023-03-03T04:11:29.272Z,42.38
2023-03-03T04:14:01.465Z,32.47
2023-03-03T04:16:31.191Z,97.65
2023-03-03T04:19:00.799Z,73.35
2023-03-03T04:21:30.674Z,31.88
2023-03-03T04:24:02.107Z,35.72
2023-03-03T04:26:33.768Z,41.80
2023-03-03T04:29:08.643Z,35.70
2023-03-03T04:31:38.397Z,20.55
2023-03-03T04:34:10.712Z,22.73
2023-03-03T04:36:41.304Z,31.05
2023-03-03T04:39:10.909Z,29.48
2023-03-03T04:41:40.622Z,22.08
2023-03-03T04:44:12.977Z,45.28
2023-03-03T04:46:42.560Z,42.58
2023-03-03T04:49:12.602Z,41.33
2023-03-03T04:51:43.306Z,39.95
2023-03-03T04:54:13.820Z,27.67
2023-03-03T04:56:43.460Z,21.67
2023-03-03T04:59:15.626Z,21.05
2023-03-03T05:01:46.585Z,22.02
2023-03-03T05:04:17.111Z,27.02
2023-03-03T05:06:46.722Z,28.08
2023-03-03T05:09:16.316Z,25.33
2023-03-03T05:11:45.863Z,62.75
2023-03-03T05:14:18.008Z,23.77
2023-03-03T05:16:47.669Z,33.17
2023-03-03T05:19:17.324Z,21.77
2023-03-03T05:21:46.869Z,15.02
2023-03-03T05:24:17.204Z,14.15
2023-03-03T05:26:46.747Z,13.93
2023-03-03T05:29:18.899Z,13.25
2023-03-03T05:31:48.510Z,13.18
2023-03-03T05:34:18.385Z,12.93
2023-03-03T05:36:47.957Z,16.50
2023-03-03T05:39:17.550Z,14.63
2023-03-03T05:41:47.126Z,14.75
2023-03-03T05:44:20.745Z,15.25
2023-03-03T05:46:50.437Z,19.83
2023-03-03T05:49:20.099Z,18.90
2023-03-03T05:51:49.660Z,16.77
2023-03-03T05:54:19.321Z,15.38
2023-03-03T05:56:48.909Z,20.27
2023-03-03T05:59:21.480Z,16.77
2023-03-03T06:01:51.125Z,24.15
2023-03-03T06:04:20.694Z,21.42
2023-03-03T06:06:50.277Z,29.15
2023-03-03T06:09:21.185Z,57.10
2023-03-03T06:11:52.938Z,16.98
2023-03-03T06:14:27.191Z,17.45
2023-03-03T06:16:57.917Z,25.88
2023-03-03T06:19:27.733Z,16.92
2023-03-03T06:22:00.561Z,43.13
2023-03-03T06:24:31.199Z,45.58
2023-03-03T06:27:01.121Z,13.95
2023-03-03T06:29:33.274Z,21.55
2023-03-03T06:32:03.143Z,16.25
2023-03-03T06:34:32.934Z,16.20
2023-03-03T06:37:02.525Z,23.08
2023-03-03T06:39:32.046Z,15.40
2023-03-03T06:42:01.638Z,19.80
2023-03-03T06:44:33.852Z,30.42
2023-03-03T06:47:03.507Z,22.98
2023-03-03T06:49:33.073Z,20.05
2023-03-03T06:52:08.376Z,22.90
2023-03-03T06:54:38.191Z,18.48
2023-03-03T06:57:18.990Z,16.23
2023-03-03T06:59:55.874Z,19.70
2023-03-03T07:02:25.746Z,19.60
2023-03-03T07:04:58.705Z,19.27
2023-03-03T07:07:29.283Z,21.73
2023-03-03T07:10:00.002Z,17.48
2023-03-03T07:12:33.113Z,21.67
2023-03-03T07:15:17.812Z,16.48
2023-03-03T07:17:51.052Z,18.25
2023-03-03T07:20:24.161Z,16.67
2023-03-03T07:22:54.612Z,15.15
2023-03-03T07:25:32.377Z,18.48
2023-03-03T07:28:14.145Z,17.80
2023-03-03T07:30:46.378Z,21.92
2023-03-03T07:33:25.225Z,29.70
2023-03-03T07:35:57.898Z,24.85
2023-03-03T07:38:33.483Z,22.13
2023-03-03T07:41:05.696Z,27.23
2023-03-03T07:43:38.905Z,26.50
2023-03-03T07:46:28.005Z,23.25
2023-03-03T07:48:59.684Z,29.85
2023-03-03T07:51:31.881Z,25.38
2023-03-03T07:54:20.772Z,17.15
2023-03-03T07:56:50.653Z,20.23
2023-03-03T07:59:24.750Z,18.02
2023-03-03T08:02:00.616Z,15.10
2023-03-03T08:04:39.650Z,14.43
2023-03-03T08:07:16.789Z,16.58
2023-03-03T08:13:11.930Z,16.83
2023-03-03T08:15:41.541Z,18.55
2023-03-03T08:18:22.460Z,13.82
2023-03-03T08:20:53.879Z,15.20
2023-03-03T08:23:24.448Z,19.20
2023-03-03T08:25:57.176Z,19.20
2023-03-03T08:28:26.840Z,19.95
2023-03-03T08:31:12.510Z,28.13
2023-03-03T08:33:49.293Z,17.98
2023-03-03T08:36:18.880Z,19.08
2023-03-03T08:38:48.494Z,18.98
2023-03-03T08:41:18.189Z,21.23
2023-03-03T08:43:48.409Z,17.90
2023-03-03T08:46:18.058Z,15.63
2023-03-03T08:48:50.203Z,20.30
2023-03-03T08:51:19.848Z,18.60
2023-03-03T08:53:49.570Z,17.67
2023-03-03T08:56:19.070Z,15.88
2023-03-03T08:59:03.973Z,16.95
2023-03-03T09:01:34.264Z,16.92
2023-03-03T09:04:06.626Z,15.48
2023-03-03T09:06:36.184Z,16.10
2023-03-03T09:09:06.165Z,17.35
2023-03-03T09:11:36.010Z,17.63
2023-03-03T09:14:13.121Z,22.20
2023-03-03T09:16:46.051Z,21.75
2023-03-03T09:19:26.835Z,17.55
2023-03-03T09:21:57.775Z,20.90
2023-03-03T09:24:29.708Z,23.35
2023-03-03T09:27:01.230Z,22.45
2023-03-03T09:29:32.091Z,20.50
2023-03-03T09:32:03.478Z,21.13
2023-03-03T09:34:41.391Z,22.88
2023-03-03T09:37:24.629Z,17.00
2023-03-03T09:39:55.585Z,22.63
2023-03-03T09:42:44.167Z,20.63
2023-03-03T09:45:33.336Z,17.60
2023-03-03T09:48:25.762Z,23.83
2023-03-03T09:51:09.135Z,21.75
2023-03-03T09:53:54.126Z,22.23
2023-03-03T09:56:31.766Z,20.33
2023-03-03T09:59:12.694Z,20.48
2023-03-03T10:02:03.479Z,22.45
2023-03-03T10:04:54.295Z,22.42
2023-03-03T10:07:38.550Z,24.40
2023-03-03T10:10:22.300Z,17.20
2023-03-03T10:13:04.233Z,17.67
2023-03-03T10:15:45.578Z,15.05
2023-03-03T10:18:27.067Z,19.00
2023-03-03T10:21:07.455Z,19.60
2023-03-03T10:23:59.394Z,16.23
2023-03-03T10:27:09.796Z,18.60
2023-03-03T10:29:49.451Z,19.05
2023-03-03T10:32:34.834Z,18.58
2023-03-03T10:35:19.286Z,21.75
2023-03-03T10:38:00.779Z,19.58
2023-03-03T10:40:40.819Z,21.08
2023-03-03T10:43:38.057Z,20.30
2023-03-03T10:46:23.277Z,16.73
2023-03-03T10:49:16.305Z,19.98
2023-03-03T10:51:58.850Z,17.40
2023-03-03T10:54:41.159Z,15.52
2023-03-03T10:57:20.230Z,21.08
2023-03-03T11:00:05.588Z,21.15
2023-03-03T11:02:46.449Z,14.97
2023-03-03T11:05:35.909Z,19.83
2023-03-03T11:08:11.051Z,22.00
2023-03-03T11:10:51.819Z,19.67
2023-03-03T11:13:35.559Z,21.13
2023-03-03T11:16:29.208Z,18.83
2023-03-03T11:19:15.994Z,21.83
2023-03-03T11:21:52.837Z,23.48
2023-03-03T11:24:32.602Z,22.58
2023-03-03T11:27:16.013Z,22.25
2023-03-03T11:29:59.480Z,24.60
2023-03-03T11:32:40.566Z,21.20
2023-03-03T11:35:25.073Z,22.75
2023-03-03T11:38:06.250Z,25.73
2023-03-03T11:40:47.899Z,26.20
2023-03-03T11:43:35.623Z,23.63
2023-03-03T11:46:14.436Z,27.25
2023-03-03T11:48:53.517Z,24.63
2023-03-03T11:51:29.962Z,27.10
2023-03-03T11:54:06.992Z,31.33
2023-03-03T11:56:42.418Z,38.88
2023-03-03T11:59:44.654Z,41.95
2023-03-03T12:02:44.184Z,37.65
2023-03-03T12:05:26.034Z,30.52
2023-03-03T12:08:06.168Z,32.30
2023-03-03T12:10:44.080Z,36.47
2023-03-03T12:13:26.352Z,40.88
2023-03-03T12:16:03.397Z,41.67
2023-03-03T12:18:56.404Z,44.53
2023-03-03T12:21:38.337Z,47.03
2023-03-03T12:24:30.232Z,49.38
2023-03-03T12:27:13.520Z,48.08
2023-03-03T12:29:52.085Z,49.17
2023-03-03T12:32:33.480Z,45.75
2023-03-03T12:35:13.012Z,48.50
2023-03-03T12:37:56.530Z,44.55
2023-03-03T12:40:29.214Z,51.45
2023-03-03T12:43:10.760Z,44.85
2023-03-03T12:45:50.282Z,43.72
2023-03-03T12:48:24.309Z,45.30
2023-03-03T12:51:10.128Z,56.03
2023-03-03T12:54:13.757Z,53.15
2023-03-03T12:56:49.771Z,51.67
2023-03-03T13:02:11.969Z,47.97
2023-03-03T13:04:47.634Z,37.63
2023-03-03T13:10:11.602Z,41.10
2023-03-03T13:12:47.058Z,49.42
2023-03-03T13:15:31.765Z,48.63
2023-03-03T13:18:28.218Z,48.63
2023-03-03T13:21:06.293Z,48.28
2023-03-03T13:23:50.744Z,45.60
2023-03-03T13:26:25.669Z,40.47
2023-03-03T13:29:03.353Z,47.93
2023-03-03T13:31:37.162Z,38.83
2023-03-03T13:34:07.185Z,41.92
2023-03-03T13:36:42.197Z,40.90
2023-03-03T13:39:23.024Z,31.52
2023-03-03T13:41:59.234Z,36.40
2023-03-03T13:44:34.678Z,33.40
2023-03-03T13:47:16.739Z,28.52
2023-03-03T13:50:06.569Z,35.65
2023-03-03T13:52:45.577Z,34.95
2023-03-03T13:55:26.663Z,32.38
2023-03-03T13:58:07.587Z,27.33
2023-03-03T14:00:52.830Z,26.35
2023-03-03T14:03:52.480Z,26.87
2023-03-03T14:06:24.881Z,27.33
2023-03-03T14:09:08.871Z,20.60
2023-03-03T14:11:49.536Z,23.35
2023-03-03T14:14:39.184Z,25.10
2023-03-03T14:17:18.078Z,19.38
2023-03-03T14:19:50.452Z,18.63
2023-03-03T14:22:24.244Z,18.23
2023-03-03T14:25:02.054Z,17.58
2023-03-03T14:27:39.379Z,19.58
2023-03-03T14:30:31.872Z,20.42
2023-03-03T14:33:04.638Z,22.15
2023-03-03T14:35:37.557Z,21.42
2023-03-03T14:38:15.830Z,23.35
2023-03-03T14:40:47.767Z,20.02
2023-03-03T14:43:30.146Z,18.85
2023-03-03T14:45:59.962Z,18.10
2023-03-03T14:48:32.624Z,19.83
2023-03-03T14:51:18.554Z,20.75
2023-03-03T14:53:50.694Z,18.42
2023-03-03T14:56:26.386Z,19.00
2023-03-03T14:59:19.215Z,16.95
2023-03-03T15:01:49.753Z,17.27
2023-03-03T15:04:28.456Z,16.85
2023-03-03T15:06:58.969Z,17.33
2023-03-03T15:09:39.306Z,18.85
2023-03-03T15:12:37.931Z,15.73
2023-03-03T15:15:21.326Z,15.10
2023-03-03T15:18:00.491Z,14.32
2023-03-03T15:20:39.952Z,12.63
2023-03-03T15:23:24.461Z,13.25
2023-03-03T15:26:02.319Z,15.75
2023-03-03T15:28:55.321Z,17.52
2023-03-03T15:31:37.387Z,13.18
2023-03-03T15:34:23.264Z,13.00
2023-03-03T15:36:59.293Z,16.35
2023-03-03T15:39:39.217Z,15.18
2023-03-03T15:42:16.428Z,13.10
2023-03-03T15:44:59.332Z,17.02
2023-03-03T15:47:53.824Z,15.77
2023-03-03T15:50:47.767Z,14.02
2023-03-03T15:53:31.957Z,13.82
2023-03-03T15:56:22.430Z,13.68
2023-03-03T15:59:30.784Z,21.80
2023-03-03T16:02:12.604Z,15.07
2023-03-03T16:04:55.483Z,16.95
2023-03-03T16:07:35.789Z,15.90
2023-03-03T16:10:16.232Z,16.45
2023-03-03T16:12:57.884Z,15.98
2023-03-03T16:15:40.557Z,17.60
2023-03-03T16:18:20.747Z,16.20
2023-03-03T16:21:05.979Z,15.52
2023-03-03T16:23:48.283Z,15.18
2023-03-03T16:26:31.668Z,17.80
2023-03-03T16:29:14.498Z,18.10
2023-03-03T16:31:50.135Z,15.50
2023-03-03T16:34:24.668Z,15.57
2023-03-03T16:37:06.662Z,17.73
2023-03-03T16:39:49.755Z,17.70
2023-03-03T16:42:28.012Z,16.58
2023-03-03T16:45:11.787Z,16.17
2023-03-03T16:47:52.642Z,15.30
2023-03-03T16:50:29.469Z,16.58
2023-03-03T16:53:09.767Z,16.70
2023-03-03T16:55:45.677Z,16.27
2023-03-03T16:58:29.003Z,15.82
2023-03-03T17:01:08.767Z,16.25
2023-03-03T17:03:50.365Z,14.32
2023-03-03T17:06:26.327Z,16.30
2023-03-03T17:09:26.689Z,18.02
2023-03-03T17:12:16.020Z,16.15
2023-03-03T17:15:02.307Z,16.77
2023-03-03T17:17:43.993Z,18.58
2023-03-03T17:20:27.670Z,16.45
2023-03-03T17:23:11.462Z,13.60
2023-03-03T17:25:48.149Z,15.02
2023-03-03T17:28:31.162Z,15.60
2023-03-03T17:31:11.111Z,17.58
2023-03-03T17:33:57.449Z,15.77
2023-03-03T17:36:45.451Z,16.35
2023-03-03T17:39:41.235Z,14.75
2023-03-03T17:42:22.189Z,13.27
2023-03-03T17:45:01.097Z,18.90
2023-03-03T17:47:44.682Z,19.85
2023-03-03T17:50:27.433Z,18.20
2023-03-03T17:53:18.852Z,20.50
2023-03-03T17:56:04.623Z,22.55
2023-03-03T17:59:10.001Z,22.08
2023-03-03T18:02:01.746Z,20.58
2023-03-03T18:04:45.028Z,21.52
2023-03-03T18:07:33.096Z,21.80
2023-03-03T18:10:45.779Z,22.30
2023-03-03T18:13:35.060Z,23.50
2023-03-03T18:16:19.211Z,21.38
2023-03-03T18:19:10.896Z,28.05
2023-03-03T18:21:46.911Z,28.17
2023-03-03T18:24:30.173Z,24.15
2023-03-03T18:27:16.470Z,23.17
2023-03-03T18:30:33.537Z,18.45
2023-03-03T18:33:16.217Z,25.92
2023-03-03T18:35:49.425Z,23.10
2023-03-03T18:38:30.468Z,22.48
2023-03-03T18:41:02.758Z,27.15
2023-03-03T18:43:56.356Z,21.63
2023-03-03T18:46:48.397Z,26.33
2023-03-03T18:49:21.197Z,26.08
2023-03-03T18:52:15.295Z,29.23
2023-03-03T18:54:45.481Z,27.40
2023-03-03T18:57:18.570Z,27.52
2023-03-03T18:59:57.297Z,25.88
2023-03-03T19:02:40.200Z,23.45
2023-03-03T19:05:23.430Z,28.83
2023-03-03T19:07:59.165Z,27.83
2023-03-03T19:13:49.553Z,29.45
2023-03-03T19:16:36.798Z,25.10
2023-03-03T19:19:17.331Z,29.17
2023-03-03T19:21:53.506Z,29.38
2023-03-03T19:24:40.981Z,29.95
2023-03-03T19:27:30.856Z,29.05
2023-03-03T19:30:10.409Z,28.33
2023-03-03T19:33:12.193Z,32.35
2023-03-03T19:35:53.586Z,31.98
2023-03-03T19:38:36.569Z,30.30
2023-03-03T19:41:22.631Z,27.50
2023-03-03T19:44:04.532Z,24.95
2023-03-03T19:46:53.239Z,27.85
2023-03-03T19:49:36.478Z,24.65
2023-03-03T19:52:11.728Z,24.40
2023-03-03T19:54:56.958Z,23.42
2023-03-03T19:57:43.260Z,19.27
2023-03-03T20:00:21.696Z,22.15
2023-03-03T20:03:08.450Z,26.50
2023-03-03T20:05:46.781Z,21.67
2023-03-03T20:08:23.983Z,22.45
2023-03-03T20:10:59.925Z,20.95
2023-03-03T20:13:54.915Z,20.33
2023-03-03T20:16:37.308Z,24.27
2023-03-03T20:19:20.400Z,19.10
2023-03-03T20:22:02.858Z,20.73
2023-03-03T20:24:50.583Z,18.52
2023-03-03T20:27:26.990Z,20.60
2023-03-03T20:30:16.941Z,20.83
2023-03-03T20:32:59.642Z,25.20
2023-03-03T20:35:40.481Z,21.73
2023-03-03T20:38:21.127Z,21.88
2023-03-03T20:40:58.839Z,17.63
2023-03-03T20:43:45.073Z,19.55
2023-03-03T20:46:23.404Z,15.38
2023-03-03T20:49:17.272Z,17.33
2023-03-03T20:51:56.195Z,16.77
2023-03-03T20:54:35.738Z,17.70
2023-03-03T20:57:13.026Z,16.33
2023-03-03T20:59:51.889Z,12.90
2023-03-03T21:02:28.580Z,16.30
2023-03-03T21:05:12.881Z,14.18
2023-03-03T21:07:54.352Z,13.15
2023-03-03T21:10:26.668Z,14.10
2023-03-03T21:12:57.682Z,14.98
2023-03-03T21:15:35.786Z,13.40
2023-03-03T21:18:24.068Z,13.70
2023-03-03T21:20:54.098Z,15.57
2023-03-03T21:23:23.921Z,13.32
2023-03-03T21:25:55.003Z,13.18
2023-03-03T21:28:27.737Z,12.68
2023-03-03T21:31:17.748Z,15.13
2023-03-03T21:33:50.267Z,13.77
2023-03-03T21:36:23.281Z,13.88
2023-03-03T21:38:55.034Z,10.45
2023-03-03T21:41:24.753Z,16.27
2023-03-03T21:43:56.401Z,12.63
2023-03-03T21:46:28.596Z,13.32
2023-03-03T21:48:58.143Z,12.65
2023-03-03T21:51:28.897Z,14.40
2023-03-03T21:53:58.768Z,12.60
2023-03-03T21:56:28.291Z,12.68
2023-03-03T21:58:57.808Z,14.05
2023-03-03T22:01:29.972Z,10.02
2023-03-03T22:04:00.106Z,14.80
2023-03-03T22:06:29.925Z,10.90
2023-03-03T22:08:59.564Z,13.82
2023-03-03T22:11:29.099Z,11.32
2023-03-03T22:13:58.627Z,10.32
2023-03-03T22:16:31.009Z,12.25
2023-03-03T22:19:02.741Z,9.65
2023-03-03T22:21:33.097Z,15.00
2023-03-03T22:24:02.634Z,11.93
2023-03-03T22:26:32.191Z,11.38
2023-03-03T22:29:01.856Z,9.07
2023-03-03T22:31:34.152Z,13.75
2023-03-03T22:34:04.653Z,11.40
2023-03-03T22:36:34.303Z,13.10
2023-03-03T22:39:03.828Z,10.18
2023-03-03T22:41:33.350Z,10.65
2023-03-03T22:44:02.865Z,10.43
2023-03-03T22:46:35.028Z,10.77
2023-03-03T22:49:04.745Z,12.48
2023-03-03T22:51:34.297Z,13.02
2023-03-03T22:54:05.156Z,12.30
2023-03-03T22:56:34.891Z,9.48
2023-03-03T22:59:04.504Z,11.73
2023-03-03T23:01:36.666Z,10.90
2023-03-03T23:04:06.504Z,10.40
2023-03-03T23:06:36.067Z,12.85
2023-03-03T23:09:05.692Z,13.63
2023-03-03T23:11:35.283Z,11.02
2023-03-03T23:14:04.925Z,10.23
2023-03-03T23:16:37.030Z,10.50
2023-03-03T23:19:06.582Z,11.15
2023-03-03T23:21:36.148Z,12.32
2023-03-03T23:24:06.652Z,12.05
2023-03-03T23:26:36.291Z,13.65
2023-03-03T23:29:05.924Z,12.70
2023-03-03T23:31:38.077Z,11.88
2023-03-03T23:34:07.801Z,12.23
2023-03-03T23:36:37.370Z,15.57
2023-03-03T23:39:07.323Z,10.30
2023-03-03T23:41:38.466Z,15.50
2023-03-03T23:44:08.081Z,14.55
2023-03-03T23:46:40.669Z,12.45
2023-03-03T23:49:10.494Z,12.23
2023-03-03T23:51:40.062Z,11.48
2023-03-03T23:54:09.589Z,13.15
2023-03-03T23:56:39.126Z,11.50
2023-03-03T23:59:08.642Z,16.85
